sensor_id;sensor_type;location;lat;lon;timestamp;P1;durP1;ratioP1;P2;durP2;ratioP2
52946;SDS011;45776;40.400;17.260;2022-09-17T00:01:45;14.18;;;2.13;;
52946;SDS011;45776;40.400;17.260;2022-09-17T00:04:11;13.45;;;2.05;;
52946;SDS011;45776;40.400;17.260;2022-09-17T00:06:36;16.92;;;2.22;;
52946;SDS011;45776;40.400;17.260;2022-09-17T00:09:03;10.27;;;2.10;;
52946;SDS011;45776;40.400;17.260;2022-09-17T00:11:31;11.55;;;2.30;;
52946;SDS011;45776;40.400;17.260;2022-09-17T00:13:58;15.00;;;2.10;;
52946;SDS011;45776;40.400;17.260;2022-09-17T00:16:26;9.05;;;1.90;;
52946;SDS011;45776;40.400;17.260;2022-09-17T00:18:58;9.75;;;2.00;;
52946;SDS011;45776;40.400;17.260;2022-09-17T00:21:25;10.20;;;2.75;;
52946;SDS011;45776;40.400;17.260;2022-09-17T00:23:52;15.52;;;2.40;;
52946;SDS011;45776;40.400;17.260;2022-09-17T00:26:21;15.20;;;2.17;;
52946;SDS011;45776;40.400;17.260;2022-09-17T00:28:48;15.57;;;2.83;;
52946;SDS011;45776;40.400;17.260;2022-09-17T00:31:15;15.88;;;2.92;;
52946;SDS011;45776;40.400;17.260;2022-09-17T00:33:40;14.23;;;2.30;;
52946;SDS011;45776;40.400;17.260;2022-09-17T00:36:06;18.45;;;3.22;;
52946;SDS011;45776;40.400;17.260;2022-09-17T00:38:32;8.60;;;2.10;;
52946;SDS011;45776;40.400;17.260;2022-09-17T00:40:57;11.98;;;2.78;;
52946;SDS011;45776;40.400;17.260;2022-09-17T00:43:38;8.50;;;2.13;;
52946;SDS011;45776;40.400;17.260;2022-09-17T00:48:58;8.63;;;2.38;;
52946;SDS011;45776;40.400;17.260;2022-09-17T00:51:41;13.48;;;2.45;;
52946;SDS011;45776;40.400;17.260;2022-09-17T00:54:15;10.77;;;2.45;;
52946;SDS011;45776;40.400;17.260;2022-09-17T00:56:40;13.27;;;2.53;;
52946;SDS011;45776;40.400;17.260;2022-09-17T00:59:07;15.77;;;2.42;;
52946;SDS011;45776;40.400;17.260;2022-09-17T01:01:34;14.23;;;2.67;;
52946;SDS011;45776;40.400;17.260;2022-09-17T01:04:00;13.55;;;2.97;;
52946;SDS011;45776;40.400;17.260;2022-09-17T01:06:45;10.90;;;2.47;;
52946;SDS011;45776;40.400;17.260;2022-09-17T01:09:30;13.80;;;2.58;;
52946;SDS011;45776;40.400;17.260;2022-09-17T01:14:44;9.77;;;2.35;;
52946;SDS011;45776;40.400;17.260;2022-09-17T01:28:23;12.73;;;2.75;;
52946;SDS011;45776;40.400;17.260;2022-09-17T01:39:32;10.85;;;2.47;;
52946;SDS011;45776;40.400;17.260;2022-09-17T01:42:18;8.65;;;2.28;;
52946;SDS011;45776;40.400;17.260;2022-09-17T01:44:54;8.35;;;2.00;;
52946;SDS011;45776;40.400;17.260;2022-09-17T01:47:37;13.20;;;2.45;;
52946;SDS011;45776;40.400;17.260;2022-09-17T01:50:08;13.27;;;2.25;;
52946;SDS011;45776;40.400;17.260;2022-09-17T01:52:39;11.35;;;2.10;;
52946;SDS011;45776;40.400;17.260;2022-09-17T01:55:09;12.90;;;2.22;;
52946;SDS011;45776;40.400;17.260;2022-09-17T01:57:39;9.85;;;2.25;;
52946;SDS011;45776;40.400;17.260;2022-09-17T02:00:12;11.75;;;2.50;;
52946;SDS011;45776;40.400;17.260;2022-09-17T02:05:38;13.20;;;3.00;;
52946;SDS011;45776;40.400;17.260;2022-09-17T02:10:39;13.52;;;2.70;;
52946;SDS011;45776;40.400;17.260;2022-09-17T02:13:12;6.95;;;2.20;;
52946;SDS011;45776;40.400;17.260;2022-09-17T02:15:51;11.43;;;3.03;;
52946;SDS011;45776;40.400;17.260;2022-09-17T02:18:23;11.25;;;2.67;;
52946;SDS011;45776;40.400;17.260;2022-09-17T02:21:16;11.13;;;2.50;;
52946;SDS011;45776;40.400;17.260;2022-09-17T02:24:06;12.07;;;2.40;;
52946;SDS011;45776;40.400;17.260;2022-09-17T02:26:40;11.65;;;2.55;;
52946;SDS011;45776;40.400;17.260;2022-09-17T02:29:25;6.65;;;1.88;;
52946;SDS011;45776;40.400;17.260;2022-09-17T02:32:02;11.23;;;2.22;;
52946;SDS011;45776;40.400;17.260;2022-09-17T02:34:28;6.47;;;2.40;;
52946;SDS011;45776;40.400;17.260;2022-09-17T02:36:54;9.07;;;2.00;;
52946;SDS011;45776;40.400;17.260;2022-09-17T02:39:22;9.48;;;2.20;;
52946;SDS011;45776;40.400;17.260;2022-09-17T02:47:24;6.10;;;2.13;;
52946;SDS011;45776;40.400;17.260;2022-09-17T02:53:19;9.63;;;2.30;;
52946;SDS011;45776;40.400;17.260;2022-09-17T02:56:01;12.05;;;2.33;;
52946;SDS011;45776;40.400;17.260;2022-09-17T03:01:33;10.95;;;2.85;;
52946;SDS011;45776;40.400;17.260;2022-09-17T03:04:04;10.55;;;2.58;;
52946;SDS011;45776;40.400;17.260;2022-09-17T03:06:34;11.40;;;2.63;;
52946;SDS011;45776;40.400;17.260;2022-09-17T03:08:59;15.27;;;2.60;;
52946;SDS011;45776;40.400;17.260;2022-09-17T03:11:25;9.60;;;2.35;;
52946;SDS011;45776;40.400;17.260;2022-09-17T03:13:51;7.88;;;2.72;;
52946;SDS011;45776;40.400;17.260;2022-09-17T03:16:16;11.10;;;2.38;;
52946;SDS011;45776;40.400;17.260;2022-09-17T03:18:42;12.75;;;3.03;;
52946;SDS011;45776;40.400;17.260;2022-09-17T03:21:07;9.13;;;1.83;;
52946;SDS011;45776;40.400;17.260;2022-09-17T03:23:33;12.70;;;2.67;;
52946;SDS011;45776;40.400;17.260;2022-09-17T03:25:59;11.93;;;2.47;;
52946;SDS011;45776;40.400;17.260;2022-09-17T03:28:24;14.05;;;2.58;;
52946;SDS011;45776;40.400;17.260;2022-09-17T03:30:50;12.70;;;2.50;;
52946;SDS011;45776;40.400;17.260;2022-09-17T03:33:16;11.10;;;2.78;;
52946;SDS011;45776;40.400;17.260;2022-09-17T03:35:45;9.35;;;2.67;;
52946;SDS011;45776;40.400;17.260;2022-09-17T03:38:11;8.50;;;2.20;;
52946;SDS011;45776;40.400;17.260;2022-09-17T03:40:37;8.05;;;2.60;;
52946;SDS011;45776;40.400;17.260;2022-09-17T03:43:03;12.80;;;3.03;;
52946;SDS011;45776;40.400;17.260;2022-09-17T03:45:30;10.75;;;2.67;;
52946;SDS011;45776;40.400;17.260;2022-09-17T03:47:55;16.25;;;3.00;;
52946;SDS011;45776;40.400;17.260;2022-09-17T03:50:21;9.70;;;2.20;;
52946;SDS011;45776;40.400;17.260;2022-09-17T03:52:46;9.48;;;2.35;;
52946;SDS011;45776;40.400;17.260;2022-09-17T03:55:12;11.35;;;2.70;;
52946;SDS011;45776;40.400;17.260;2022-09-17T03:57:38;7.72;;;2.60;;
52946;SDS011;45776;40.400;17.260;2022-09-17T04:00:03;14.07;;;2.92;;
52946;SDS011;45776;40.400;17.260;2022-09-17T04:02:30;7.97;;;2.92;;
52946;SDS011;45776;40.400;17.260;2022-09-17T04:04:56;12.85;;;3.08;;
52946;SDS011;45776;40.400;17.260;2022-09-17T04:07:21;18.05;;;3.53;;
52946;SDS011;45776;40.400;17.260;2022-09-17T04:09:46;12.48;;;3.00;;
52946;SDS011;45776;40.400;17.260;2022-09-17T04:12:12;8.77;;;2.75;;
52946;SDS011;45776;40.400;17.260;2022-09-17T04:14:37;11.57;;;2.88;;
52946;SDS011;45776;40.400;17.260;2022-09-17T04:17:03;13.82;;;2.83;;
52946;SDS011;45776;40.400;17.260;2022-09-17T04:19:28;14.88;;;3.20;;
52946;SDS011;45776;40.400;17.260;2022-09-17T04:21:54;12.23;;;3.03;;
52946;SDS011;45776;40.400;17.260;2022-09-17T04:24:19;17.50;;;3.65;;
52946;SDS011;45776;40.400;17.260;2022-09-17T04:26:45;12.73;;;2.63;;
52946;SDS011;45776;40.400;17.260;2022-09-17T04:29:10;13.82;;;3.70;;
52946;SDS011;45776;40.400;17.260;2022-09-17T04:31:35;16.23;;;3.60;;
52946;SDS011;45776;40.400;17.260;2022-09-17T04:34:01;11.82;;;3.20;;
52946;SDS011;45776;40.400;17.260;2022-09-17T04:36:26;14.30;;;5.30;;
52946;SDS011;45776;40.400;17.260;2022-09-17T04:38:52;18.67;;;4.03;;
52946;SDS011;45776;40.400;17.260;2022-09-17T04:41:18;10.88;;;3.72;;
52946;SDS011;45776;40.400;17.260;2022-09-17T04:43:43;11.65;;;3.35;;
52946;SDS011;45776;40.400;17.260;2022-09-17T04:46:09;14.82;;;3.63;;
52946;SDS011;45776;40.400;17.260;2022-09-17T04:48:35;12.02;;;2.40;;
52946;SDS011;45776;40.400;17.260;2022-09-17T04:51:03;8.75;;;2.63;;
52946;SDS011;45776;40.400;17.260;2022-09-17T04:53:29;10.27;;;2.70;;
52946;SDS011;45776;40.400;17.260;2022-09-17T04:55:54;6.88;;;2.42;;
52946;SDS011;45776;40.400;17.260;2022-09-17T04:58:19;9.02;;;2.72;;
52946;SDS011;45776;40.400;17.260;2022-09-17T05:00:45;6.88;;;2.85;;
52946;SDS011;45776;40.400;17.260;2022-09-17T05:03:10;11.52;;;3.03;;
52946;SDS011;45776;40.400;17.260;2022-09-17T05:05:36;8.63;;;3.30;;
52946;SDS011;45776;40.400;17.260;2022-09-17T05:08:02;8.75;;;3.05;;
52946;SDS011;45776;40.400;17.260;2022-09-17T05:10:27;10.38;;;2.88;;
52946;SDS011;45776;40.400;17.260;2022-09-17T05:12:54;10.45;;;3.38;;
52946;SDS011;45776;40.400;17.260;2022-09-17T05:15:20;16.00;;;4.43;;
52946;SDS011;45776;40.400;17.260;2022-09-17T05:17:46;14.52;;;4.72;;
52946;SDS011;45776;40.400;17.260;2022-09-17T05:20:13;10.93;;;3.92;;
52946;SDS011;45776;40.400;17.260;2022-09-17T05:22:41;9.18;;;3.45;;
52946;SDS011;45776;40.400;17.260;2022-09-17T05:25:11;9.13;;;3.22;;
52946;SDS011;45776;40.400;17.260;2022-09-17T05:27:37;13.20;;;3.50;;
52946;SDS011;45776;40.400;17.260;2022-09-17T05:30:03;9.15;;;3.10;;
52946;SDS011;45776;40.400;17.260;2022-09-17T05:32:30;9.77;;;3.20;;
52946;SDS011;45776;40.400;17.260;2022-09-17T05:34:55;8.07;;;3.00;;
52946;SDS011;45776;40.400;17.260;2022-09-17T05:37:21;4.88;;;2.38;;
52946;SDS011;45776;40.400;17.260;2022-09-17T05:39:46;9.15;;;3.13;;
52946;SDS011;45776;40.400;17.260;2022-09-17T05:42:12;7.68;;;2.50;;
52946;SDS011;45776;40.400;17.260;2022-09-17T05:44:37;8.65;;;2.63;;
52946;SDS011;45776;40.400;17.260;2022-09-17T05:47:03;5.30;;;2.50;;
52946;SDS011;45776;40.400;17.260;2022-09-17T05:49:29;5.10;;;2.50;;
52946;SDS011;45776;40.400;17.260;2022-09-17T05:51:54;8.98;;;3.10;;
52946;SDS011;45776;40.400;17.260;2022-09-17T05:54:19;11.15;;;2.72;;
52946;SDS011;45776;40.400;17.260;2022-09-17T05:56:45;10.95;;;2.80;;
52946;SDS011;45776;40.400;17.260;2022-09-17T05:59:11;9.45;;;2.67;;
52946;SDS011;45776;40.400;17.260;2022-09-17T06:01:36;5.38;;;2.60;;
52946;SDS011;45776;40.400;17.260;2022-09-17T06:04:02;8.70;;;2.55;;
52946;SDS011;45776;40.400;17.260;2022-09-17T06:06:29;6.05;;;3.08;;
52946;SDS011;45776;40.400;17.260;2022-09-17T06:08:57;6.03;;;2.40;;
52946;SDS011;45776;40.400;17.260;2022-09-17T06:11:23;5.97;;;2.30;;
52946;SDS011;45776;40.400;17.260;2022-09-17T06:13:52;5.50;;;2.40;;
52946;SDS011;45776;40.400;17.260;2022-09-17T06:16:19;7.30;;;2.60;;
52946;SDS011;45776;40.400;17.260;2022-09-17T06:18:46;5.28;;;2.30;;
52946;SDS011;45776;40.400;17.260;2022-09-17T06:21:11;6.30;;;2.08;;
52946;SDS011;45776;40.400;17.260;2022-09-17T06:23:37;7.22;;;2.33;;
52946;SDS011;45776;40.400;17.260;2022-09-17T06:26:03;5.47;;;1.50;;
52946;SDS011;45776;40.400;17.260;2022-09-17T06:28:30;3.10;;;1.90;;
52946;SDS011;45776;40.400;17.260;2022-09-17T06:31:01;5.43;;;2.00;;
52946;SDS011;45776;40.400;17.260;2022-09-17T06:33:28;4.22;;;1.45;;
52946;SDS011;45776;40.400;17.260;2022-09-17T06:35:55;5.15;;;2.35;;
52946;SDS011;45776;40.400;17.260;2022-09-17T06:38:21;9.75;;;2.17;;
52946;SDS011;45776;40.400;17.260;2022-09-17T06:40:50;8.68;;;2.45;;
52946;SDS011;45776;40.400;17.260;2022-09-17T06:43:16;7.78;;;2.00;;
52946;SDS011;45776;40.400;17.260;2022-09-17T06:45:42;6.60;;;2.38;;
52946;SDS011;45776;40.400;17.260;2022-09-17T06:48:08;8.68;;;2.00;;
52946;SDS011;45776;40.400;17.260;2022-09-17T06:50:33;8.13;;;2.10;;
52946;SDS011;45776;40.400;17.260;2022-09-17T06:52:59;5.97;;;2.00;;
52946;SDS011;45776;40.400;17.260;2022-09-17T06:55:24;9.35;;;2.30;;
52946;SDS011;45776;40.400;17.260;2022-09-17T06:57:50;8.95;;;2.00;;
52946;SDS011;45776;40.400;17.260;2022-09-17T07:00:15;5.57;;;2.30;;
52946;SDS011;45776;40.400;17.260;2022-09-17T07:02:41;9.30;;;2.42;;
52946;SDS011;45776;40.400;17.260;2022-09-17T07:05:06;7.78;;;2.25;;
52946;SDS011;45776;40.400;17.260;2022-09-17T07:07:32;17.15;;;2.35;;
52946;SDS011;45776;40.400;17.260;2022-09-17T07:09:59;8.18;;;1.90;;
52946;SDS011;45776;40.400;17.260;2022-09-17T07:12:25;9.02;;;1.70;;
52946;SDS011;45776;40.400;17.260;2022-09-17T07:14:51;9.98;;;2.38;;
52946;SDS011;45776;40.400;17.260;2022-09-17T07:17:16;8.20;;;1.77;;
52946;SDS011;45776;40.400;17.260;2022-09-17T07:19:42;7.18;;;1.80;;
52946;SDS011;45776;40.400;17.260;2022-09-17T07:22:07;6.15;;;2.00;;
52946;SDS011;45776;40.400;17.260;2022-09-17T07:24:33;7.15;;;1.50;;
52946;SDS011;45776;40.400;17.260;2022-09-17T07:26:59;6.05;;;1.45;;
52946;SDS011;45776;40.400;17.260;2022-09-17T07:29:25;5.85;;;1.58;;
52946;SDS011;45776;40.400;17.260;2022-09-17T07:31:51;2.50;;;1.00;;
52946;SDS011;45776;40.400;17.260;2022-09-17T07:34:17;3.20;;;1.20;;
52946;SDS011;45776;40.400;17.260;2022-09-17T07:36:43;6.18;;;1.60;;
52946;SDS011;45776;40.400;17.260;2022-09-17T07:39:09;2.67;;;1.20;;
52946;SDS011;45776;40.400;17.260;2022-09-17T07:41:36;6.00;;;1.20;;
52946;SDS011;45776;40.400;17.260;2022-09-17T07:44:01;4.65;;;1.40;;
52946;SDS011;45776;40.400;17.260;2022-09-17T07:46:27;4.32;;;1.20;;
52946;SDS011;45776;40.400;17.260;2022-09-17T07:48:54;4.05;;;1.00;;
52946;SDS011;45776;40.400;17.260;2022-09-17T07:51:23;7.18;;;1.20;;
52946;SDS011;45776;40.400;17.260;2022-09-17T07:53:52;6.45;;;1.20;;
52946;SDS011;45776;40.400;17.260;2022-09-17T07:56:19;4.45;;;0.80;;
52946;SDS011;45776;40.400;17.260;2022-09-17T07:58:45;3.55;;;0.88;;
52946;SDS011;45776;40.400;17.260;2022-09-17T08:01:11;4.35;;;0.80;;
52946;SDS011;45776;40.400;17.260;2022-09-17T08:03:39;5.03;;;1.20;;
52946;SDS011;45776;40.400;17.260;2022-09-17T08:06:08;5.57;;;1.05;;
52946;SDS011;45776;40.400;17.260;2022-09-17T08:08:35;3.78;;;0.93;;
52946;SDS011;45776;40.400;17.260;2022-09-17T08:11:06;2.13;;;0.60;;
52946;SDS011;45776;40.400;17.260;2022-09-17T08:14:20;5.47;;;1.00;;
52946;SDS011;45776;40.400;17.260;2022-09-17T08:16:46;8.10;;;1.73;;
52946;SDS011;45776;40.400;17.260;2022-09-17T08:19:12;8.07;;;1.55;;
52946;SDS011;45776;40.400;17.260;2022-09-17T08:21:37;8.18;;;1.63;;
52946;SDS011;45776;40.400;17.260;2022-09-17T08:24:03;5.90;;;1.30;;
52946;SDS011;45776;40.400;17.260;2022-09-17T08:26:28;6.20;;;1.67;;
52946;SDS011;45776;40.400;17.260;2022-09-17T08:28:54;7.95;;;1.73;;
52946;SDS011;45776;40.400;17.260;2022-09-17T08:31:20;9.57;;;1.80;;
52946;SDS011;45776;40.400;17.260;2022-09-17T08:33:48;4.45;;;1.85;;
52946;SDS011;45776;40.400;17.260;2022-09-17T08:36:14;7.30;;;1.88;;
52946;SDS011;45776;40.400;17.260;2022-09-17T08:38:41;9.25;;;1.80;;
52946;SDS011;45776;40.400;17.260;2022-09-17T08:44:40;6.97;;;1.75;;
52946;SDS011;45776;40.400;17.260;2022-09-17T08:50:03;7.07;;;2.05;;
52946;SDS011;45776;40.400;17.260;2022-09-17T09:01:10;5.97;;;2.15;;
52946;SDS011;45776;40.400;17.260;2022-09-17T09:07:03;6.13;;;2.03;;
52946;SDS011;45776;40.400;17.260;2022-09-17T09:09:37;8.35;;;1.98;;
52946;SDS011;45776;40.400;17.260;2022-09-17T09:12:13;8.50;;;1.80;;
52946;SDS011;45776;40.400;17.260;2022-09-17T09:17:24;7.65;;;2.33;;
52946;SDS011;45776;40.400;17.260;2022-09-17T09:19:57;11.02;;;2.05;;
52946;SDS011;45776;40.400;17.260;2022-09-17T09:27:47;4.63;;;1.23;;
52946;SDS011;45776;40.400;17.260;2022-09-17T09:30:21;9.05;;;1.20;;
52946;SDS011;45776;40.400;17.260;2022-09-17T09:37:56;12.32;;;1.40;;
52946;SDS011;45776;40.400;17.260;2022-09-17T09:40:34;9.48;;;1.35;;
52946;SDS011;45776;40.400;17.260;2022-09-17T09:43:12;12.02;;;1.70;;
52946;SDS011;45776;40.400;17.260;2022-09-17T09:48:30;11.32;;;1.55;;
52946;SDS011;45776;40.400;17.260;2022-09-17T09:59:27;10.52;;;1.23;;
52946;SDS011;45776;40.400;17.260;2022-09-17T10:01:53;13.23;;;2.00;;
52946;SDS011;45776;40.400;17.260;2022-09-17T10:04:23;14.20;;;1.52;;
52946;SDS011;45776;40.400;17.260;2022-09-17T10:07:03;12.90;;;1.60;;
52946;SDS011;45776;40.400;17.260;2022-09-17T10:09:31;7.20;;;1.20;;
52946;SDS011;45776;40.400;17.260;2022-09-17T10:14:28;10.63;;;1.42;;
52946;SDS011;45776;40.400;17.260;2022-09-17T10:25:06;11.98;;;1.45;;
52946;SDS011;45776;40.400;17.260;2022-09-17T10:27:46;9.40;;;1.73;;
52946;SDS011;45776;40.400;17.260;2022-09-17T10:30:16;13.75;;;1.73;;
52946;SDS011;45776;40.400;17.260;2022-09-17T10:32:43;15.02;;;2.75;;
52946;SDS011;45776;40.400;17.260;2022-09-17T10:35:29;18.20;;;2.47;;
52946;SDS011;45776;40.400;17.260;2022-09-17T10:37:55;15.32;;;2.15;;
52946;SDS011;45776;40.400;17.260;2022-09-17T10:40:25;13.90;;;2.20;;
52946;SDS011;45776;40.400;17.260;2022-09-17T10:45:42;11.32;;;1.98;;
52946;SDS011;45776;40.400;17.260;2022-09-17T10:48:16;12.88;;;2.15;;
52946;SDS011;45776;40.400;17.260;2022-09-17T10:50:47;17.40;;;1.75;;
52946;SDS011;45776;40.400;17.260;2022-09-17T10:53:15;8.55;;;1.15;;
52946;SDS011;45776;40.400;17.260;2022-09-17T11:09:10;10.88;;;1.20;;
52946;SDS011;45776;40.400;17.260;2022-09-17T11:16:53;8.35;;;1.13;;
52946;SDS011;45776;40.400;17.260;2022-09-17T11:19:38;7.68;;;1.42;;
52946;SDS011;45776;40.400;17.260;2022-09-17T11:37:51;6.32;;;1.20;;
52946;SDS011;45776;40.400;17.260;2022-09-17T11:40:24;12.63;;;1.50;;
52946;SDS011;45776;40.400;17.260;2022-09-17T11:42:55;7.47;;;1.80;;
52946;SDS011;45776;40.400;17.260;2022-09-17T11:45:35;9.95;;;1.27;;
52946;SDS011;45776;40.400;17.260;2022-09-17T11:48:09;6.78;;;1.55;;
52946;SDS011;45776;40.400;17.260;2022-09-17T11:50:40;8.50;;;1.25;;
52946;SDS011;45776;40.400;17.260;2022-09-17T11:53:21;7.75;;;1.60;;
52946;SDS011;45776;40.400;17.260;2022-09-17T11:56:24;9.57;;;1.60;;
52946;SDS011;45776;40.400;17.260;2022-09-17T11:59:29;17.25;;;1.63;;
52946;SDS011;45776;40.400;17.260;2022-09-17T12:06:58;11.13;;;1.92;;
52946;SDS011;45776;40.400;17.260;2022-09-17T12:09:34;7.75;;;1.70;;
52946;SDS011;45776;40.400;17.260;2022-09-17T12:20:40;13.27;;;2.00;;
52946;SDS011;45776;40.400;17.260;2022-09-17T12:23:10;22.10;;;2.08;;
52946;SDS011;45776;40.400;17.260;2022-09-17T12:25:48;8.93;;;1.98;;
52946;SDS011;45776;40.400;17.260;2022-09-17T12:28:24;5.97;;;1.50;;
52946;SDS011;45776;40.400;17.260;2022-09-17T12:31:44;11.80;;;1.70;;
52946;SDS011;45776;40.400;17.260;2022-09-17T12:37:07;10.75;;;2.25;;
52946;SDS011;45776;40.400;17.260;2022-09-17T12:48:29;10.55;;;2.05;;
52946;SDS011;45776;40.400;17.260;2022-09-17T12:51:13;7.20;;;1.45;;
52946;SDS011;45776;40.400;17.260;2022-09-17T13:00:09;5.90;;;1.30;;
52946;SDS011;45776;40.400;17.260;2022-09-17T13:10:37;6.90;;;1.88;;
52946;SDS011;45776;40.400;17.260;2022-09-17T13:18:58;8.40;;;1.67;;
52946;SDS011;45776;40.400;17.260;2022-09-17T13:24:18;12.05;;;2.17;;
52946;SDS011;45776;40.400;17.260;2022-09-17T13:26:46;11.02;;;1.95;;
52946;SDS011;45776;40.400;17.260;2022-09-17T13:29:22;8.88;;;1.80;;
52946;SDS011;45776;40.400;17.260;2022-09-17T13:37:44;12.02;;;2.15;;
52946;SDS011;45776;40.400;17.260;2022-09-17T13:40:28;10.57;;;1.90;;
52946;SDS011;45776;40.400;17.260;2022-09-17T13:42:56;9.38;;;1.90;;
52946;SDS011;45776;40.400;17.260;2022-09-17T13:45:33;7.70;;;2.25;;
52946;SDS011;45776;40.400;17.260;2022-09-17T13:48:20;7.68;;;1.77;;
52946;SDS011;45776;40.400;17.260;2022-09-17T13:50:46;18.48;;;2.30;;
52946;SDS011;45776;40.400;17.260;2022-09-17T13:55:42;10.40;;;2.20;;
52946;SDS011;45776;40.400;17.260;2022-09-17T14:05:56;11.25;;;2.45;;
52946;SDS011;45776;40.400;17.260;2022-09-17T14:08:28;14.60;;;2.28;;
52946;SDS011;45776;40.400;17.260;2022-09-17T14:10:59;10.70;;;1.88;;
52946;SDS011;45776;40.400;17.260;2022-09-17T14:13:27;10.18;;;1.90;;
52946;SDS011;45776;40.400;17.260;2022-09-17T14:25:13;11.65;;;1.80;;
52946;SDS011;45776;40.400;17.260;2022-09-17T14:27:45;11.02;;;2.25;;
52946;SDS011;45776;40.400;17.260;2022-09-17T14:30:29;9.75;;;1.75;;
52946;SDS011;45776;40.400;17.260;2022-09-17T14:35:59;14.80;;;3.15;;
52946;SDS011;45776;40.400;17.260;2022-09-17T14:38:43;14.15;;;2.00;;
52946;SDS011;45776;40.400;17.260;2022-09-17T14:51:47;12.45;;;1.48;;
52946;SDS011;45776;40.400;17.260;2022-09-17T14:54:15;8.07;;;2.50;;
52946;SDS011;45776;40.400;17.260;2022-09-17T14:56:55;10.05;;;1.95;;
52946;SDS011;45776;40.400;17.260;2022-09-17T15:02:51;9.70;;;1.48;;
52946;SDS011;45776;40.400;17.260;2022-09-17T15:04:54;7.75;;;1.58;;
52946;SDS011;45776;40.400;17.260;2022-09-17T15:07:21;11.65;;;1.38;;
52946;SDS011;45776;40.400;17.260;2022-09-17T15:09:47;14.73;;;2.03;;
52946;SDS011;45776;40.400;17.260;2022-09-17T15:12:16;9.15;;;1.65;;
52946;SDS011;45776;40.400;17.260;2022-09-17T15:14:44;13.10;;;2.00;;
52946;SDS011;45776;40.400;17.260;2022-09-17T15:17:12;17.10;;;2.50;;
52946;SDS011;45776;40.400;17.260;2022-09-17T15:19:41;7.65;;;1.92;;
52946;SDS011;45776;40.400;17.260;2022-09-17T15:24:56;8.95;;;1.80;;
52946;SDS011;45776;40.400;17.260;2022-09-17T15:30:14;8.48;;;1.77;;
52946;SDS011;45776;40.400;17.260;2022-09-17T15:32:55;7.18;;;2.17;;
52946;SDS011;45776;40.400;17.260;2022-09-17T15:37:58;10.43;;;1.67;;
52946;SDS011;45776;40.400;17.260;2022-09-17T15:45:36;9.07;;;1.65;;
52946;SDS011;45776;40.400;17.260;2022-09-17T15:48:04;9.70;;;1.80;;
52946;SDS011;45776;40.400;17.260;2022-09-17T15:50:34;11.45;;;2.03;;
52946;SDS011;45776;40.400;17.260;2022-09-17T15:53:19;6.03;;;1.58;;
52946;SDS011;45776;40.400;17.260;2022-09-17T15:58:49;8.73;;;1.88;;
52946;SDS011;45776;40.400;17.260;2022-09-17T16:09:45;10.10;;;2.13;;
52946;SDS011;45776;40.400;17.260;2022-09-17T16:12:16;8.98;;;2.03;;
52946;SDS011;45776;40.400;17.260;2022-09-17T16:14:47;11.88;;;2.60;;
52946;SDS011;45776;40.400;17.260;2022-09-17T16:18:02;12.32;;;1.90;;
52946;SDS011;45776;40.400;17.260;2022-09-17T16:20:22;10.10;;;2.38;;
52946;SDS011;45776;40.400;17.260;2022-09-17T16:22:49;11.25;;;2.08;;
52946;SDS011;45776;40.400;17.260;2022-09-17T16:25:16;11.45;;;3.50;;
52946;SDS011;45776;40.400;17.260;2022-09-17T16:30:18;10.13;;;2.20;;
52946;SDS011;45776;40.400;17.260;2022-09-17T16:32:46;16.52;;;2.78;;
52946;SDS011;45776;40.400;17.260;2022-09-17T16:35:15;13.00;;;2.92;;
52946;SDS011;45776;40.400;17.260;2022-09-17T16:37:55;11.52;;;2.50;;
52946;SDS011;45776;40.400;17.260;2022-09-17T16:40:21;11.98;;;1.88;;
52946;SDS011;45776;40.400;17.260;2022-09-17T16:42:48;15.70;;;2.20;;
52946;SDS011;45776;40.400;17.260;2022-09-17T16:45:14;9.55;;;2.60;;
52946;SDS011;45776;40.400;17.260;2022-09-17T16:47:40;11.75;;;2.20;;
52946;SDS011;45776;40.400;17.260;2022-09-17T16:50:07;7.90;;;2.60;;
52946;SDS011;45776;40.400;17.260;2022-09-17T16:52:34;6.65;;;1.63;;
52946;SDS011;45776;40.400;17.260;2022-09-17T16:55:00;7.03;;;2.00;;
52946;SDS011;45776;40.400;17.260;2022-09-17T16:57:26;9.73;;;2.33;;
52946;SDS011;45776;40.400;17.260;2022-09-17T16:59:52;7.18;;;2.00;;
52946;SDS011;45776;40.400;17.260;2022-09-17T17:02:18;10.85;;;2.40;;
52946;SDS011;45776;40.400;17.260;2022-09-17T17:04:44;12.50;;;1.80;;
52946;SDS011;45776;40.400;17.260;2022-09-17T17:07:10;7.53;;;1.70;;
52946;SDS011;45776;40.400;17.260;2022-09-17T17:09:35;7.03;;;1.95;;
52946;SDS011;45776;40.400;17.260;2022-09-17T17:12:02;5.20;;;2.13;;
52946;SDS011;45776;40.400;17.260;2022-09-17T17:14:27;7.90;;;2.10;;
52946;SDS011;45776;40.400;17.260;2022-09-17T17:16:53;8.48;;;2.03;;
52946;SDS011;45776;40.400;17.260;2022-09-17T17:19:18;5.30;;;1.80;;
52946;SDS011;45776;40.400;17.260;2022-09-17T17:21:44;10.27;;;1.98;;
52946;SDS011;45776;40.400;17.260;2022-09-17T17:24:10;7.30;;;1.90;;
52946;SDS011;45776;40.400;17.260;2022-09-17T17:26:36;6.78;;;1.73;;
52946;SDS011;45776;40.400;17.260;2022-09-17T17:29:01;6.00;;;1.60;;
52946;SDS011;45776;40.400;17.260;2022-09-17T17:31:27;6.53;;;1.85;;
52946;SDS011;45776;40.400;17.260;2022-09-17T17:33:53;6.35;;;1.83;;
52946;SDS011;45776;40.400;17.260;2022-09-17T17:36:18;6.50;;;1.48;;
52946;SDS011;45776;40.400;17.260;2022-09-17T17:38:44;5.22;;;1.15;;
52946;SDS011;45776;40.400;17.260;2022-09-17T17:41:13;9.95;;;2.10;;
52946;SDS011;45776;40.400;17.260;2022-09-17T17:43:39;10.10;;;1.90;;
52946;SDS011;45776;40.400;17.260;2022-09-17T17:46:06;6.00;;;1.60;;
52946;SDS011;45776;40.400;17.260;2022-09-17T17:48:32;5.95;;;1.77;;
52946;SDS011;45776;40.400;17.260;2022-09-17T17:51:05;6.18;;;1.58;;
52946;SDS011;45776;40.400;17.260;2022-09-17T17:53:32;6.72;;;1.40;;
52946;SDS011;45776;40.400;17.260;2022-09-17T17:55:59;7.80;;;1.73;;
52946;SDS011;45776;40.400;17.260;2022-09-17T17:58:28;13.02;;;1.70;;
52946;SDS011;45776;40.400;17.260;2022-09-17T18:00:54;21.80;;;3.17;;
52946;SDS011;45776;40.400;17.260;2022-09-17T18:03:20;15.40;;;2.47;;
52946;SDS011;45776;40.400;17.260;2022-09-17T18:05:49;30.77;;;3.50;;
52946;SDS011;45776;40.400;17.260;2022-09-17T18:08:20;25.02;;;2.58;;
52946;SDS011;45776;40.400;17.260;2022-09-17T18:10:56;29.25;;;3.22;;
52946;SDS011;45776;40.400;17.260;2022-09-17T18:13:24;20.55;;;2.70;;
52946;SDS011;45776;40.400;17.260;2022-09-17T18:15:51;23.20;;;4.20;;
52946;SDS011;45776;40.400;17.260;2022-09-17T18:18:18;17.02;;;2.75;;
52946;SDS011;45776;40.400;17.260;2022-09-17T18:20:44;15.80;;;2.67;;
52946;SDS011;45776;40.400;17.260;2022-09-17T18:23:10;18.50;;;4.10;;
52946;SDS011;45776;40.400;17.260;2022-09-17T18:25:35;19.98;;;2.88;;
52946;SDS011;45776;40.400;17.260;2022-09-17T18:28:01;18.55;;;2.65;;
52946;SDS011;45776;40.400;17.260;2022-09-17T18:30:27;10.25;;;2.50;;
52946;SDS011;45776;40.400;17.260;2022-09-17T18:32:53;18.95;;;2.30;;
52946;SDS011;45776;40.400;17.260;2022-09-17T18:35:18;22.02;;;2.90;;
52946;SDS011;45776;40.400;17.260;2022-09-17T18:37:44;21.27;;;2.83;;
52946;SDS011;45776;40.400;17.260;2022-09-17T18:40:10;18.38;;;2.63;;
52946;SDS011;45776;40.400;17.260;2022-09-17T18:42:35;22.73;;;2.63;;
52946;SDS011;45776;40.400;17.260;2022-09-17T18:45:01;17.85;;;2.28;;
52946;SDS011;45776;40.400;17.260;2022-09-17T18:47:27;19.73;;;2.85;;
52946;SDS011;45776;40.400;17.260;2022-09-17T18:49:52;20.58;;;2.08;;
52946;SDS011;45776;40.400;17.260;2022-09-17T18:52:18;17.13;;;3.50;;